Lake Mills, WI

6:44 AM CDT on July 29, 2016 (GMT -0500)
Cambridge | | Change Station

Elev 883 ft 43.00 °N, 89.01 °W | Updated 21 seconds ago

Overcast
Overcast
65.3 °F
Feels Like 65.3 °F
N
3.1
Wind Variable Wind from NE

Today
High -- | Low -- °F
--% Chance of Precip.
Yesterday
High -- | Low -- °F
Precip. -- in
Pressure 29.96 in
Visibility 10.0 miles
Clouds Overcast 800 ft
Dew Point 61 °F
Humidity 87%
Rainfall Not available.
Snow Depth Not available.
5:43 AM 8:19 PM
Waning Crescent, 22% visible
METAR KRYV 291135Z AUTO 03004KT 10SM OVC008 18/18 A2996 RMK AO2 T01800180
Pressure 29.96 in
Visibility 10.0 miles
Clouds Overcast 800 ft
Dew Point 61 °F
Humidity 87%
Rainfall Not available.
Snow Depth Not available.
5:43 AM 8:19 PM
Waning Crescent, 22% visible
METAR KRYV 291135Z AUTO 03004KT 10SM OVC008 18/18 A2996 RMK AO2 T01800180

10-Day Weather Forecast

Almanac

Astronomy

Jul. 29, 2016 Rise Set
Actual Time
Civil Twilight
Nautical Twilight
Astronomical Twilight
Moon
Length of Visible Light
Length of Day
Tomorrow will be .
, % of the Moon is Illuminated

Today's Extremes

State Highs State Lows

Community

WunderPhotos

Upload Photos

1,928,325 photos uploaded!

WunderBlog® & News

Nearby

Air Quality

  Air Quality AQ Index Pollutant
Not available.

Snow Depth

Station Depth Elevation

Earthquake Activity

City Distance Mag. Time & Date
Minimum magnitude displayed is 2.5.

Coastal Water Temperatures

Place Temperature

Stations

Nearby Weather Stations

Station Location Temp. Windchill Dew Point Humidity Wind Precip. Elev Updated Type
                   

Watches & Warnings

There are currently no watches in effect.